createdAt,value
2018-10-05T00:01:27.296Z,1.17
2018-10-05T00:03:54.949Z,1.27
2018-10-05T00:06:22.634Z,1.42
2018-10-05T00:08:50.299Z,1.45
2018-10-05T00:11:18.062Z,1.59
2018-10-05T00:13:45.700Z,1.66
2018-10-05T00:16:13.347Z,1.84
2018-10-05T00:18:41.002Z,2.08
2018-10-05T00:21:08.659Z,1.91
2018-10-05T00:23:36.327Z,2.39
2018-10-05T00:26:03.979Z,2.65
2018-10-05T00:28:31.681Z,2.77
2018-10-05T00:30:59.326Z,3.16
2018-10-05T00:33:26.978Z,3.39
2018-10-05T00:35:54.697Z,3.59
2018-10-05T00:38:22.337Z,3.68
2018-10-05T00:40:56.621Z,3.80
2018-10-05T00:43:24.395Z,3.99
2018-10-05T00:45:52.043Z,4.13
2018-10-05T00:48:19.685Z,4.25
2018-10-05T00:50:47.372Z,4.26
2018-10-05T00:53:15.084Z,4.32
2018-10-05T00:55:42.682Z,4.39
2018-10-05T00:58:10.345Z,4.49
2018-10-05T01:00:38.001Z,4.50
2018-10-05T01:03:05.816Z,4.54
2018-10-05T01:05:33.477Z,4.65
2018-10-05T01:08:01.119Z,4.82
2018-10-05T01:10:28.757Z,4.91
2018-10-05T01:12:56.381Z,5.00
2018-10-05T01:15:24.089Z,5.06
2018-10-05T01:17:51.746Z,4.94
2018-10-05T01:20:19.374Z,5.20
2018-10-05T01:22:47.062Z,5.24
2018-10-05T01:25:14.688Z,5.27
2018-10-05T01:27:42.465Z,5.29
2018-10-05T01:30:11.765Z,5.26
2018-10-05T01:32:40.771Z,5.24
2018-10-05T01:35:08.502Z,5.18
2018-10-05T01:37:36.313Z,5.20
2018-10-05T01:40:04.104Z,5.25
2018-10-05T01:42:31.755Z,5.34
2018-10-05T01:44:59.458Z,5.40
2018-10-05T01:47:27.122Z,5.41
2018-10-05T01:49:55.236Z,5.42
2018-10-05T01:52:22.944Z,5.44
2018-10-05T01:54:50.601Z,5.50
2018-10-05T01:57:18.287Z,5.50
2018-10-05T01:59:45.970Z,5.56
2018-10-05T02:02:13.624Z,5.63
2018-10-05T02:04:41.269Z,5.65
2018-10-05T02:07:08.913Z,5.68
2018-10-05T02:09:36.553Z,5.79
2018-10-05T02:12:04.452Z,5.83
2018-10-05T02:14:32.190Z,5.83
2018-10-05T02:17:00.017Z,5.86
2018-10-05T02:19:27.638Z,5.88
2018-10-05T02:21:55.386Z,5.89
2018-10-05T02:24:23.039Z,5.91
2018-10-05T02:26:50.717Z,5.94
2018-10-05T02:29:18.353Z,6.00
2018-10-05T02:31:45.973Z,6.06
2018-10-05T02:34:13.768Z,6.06
2018-10-05T02:36:41.549Z,6.09
2018-10-05T02:39:10.993Z,6.11
2018-10-05T02:41:38.725Z,6.14
2018-10-05T02:44:06.436Z,6.18
2018-10-05T02:46:34.081Z,6.27
2018-10-05T02:49:02.001Z,6.31
2018-10-05T02:51:29.740Z,6.31
2018-10-05T02:53:57.407Z,6.32
2018-10-05T02:56:25.166Z,6.34
2018-10-05T02:58:52.788Z,6.33
2018-10-05T03:01:31.550Z,6.32
2018-10-05T03:03:59.200Z,6.27
2018-10-05T03:06:26.817Z,6.31
2018-10-05T03:08:54.486Z,6.34
2018-10-05T03:11:22.217Z,6.38
2018-10-05T03:13:49.850Z,6.40
2018-10-05T03:16:17.538Z,6.39
2018-10-05T03:18:45.234Z,6.41
2018-10-05T03:21:12.947Z,6.45
2018-10-05T03:23:40.581Z,6.43
2018-10-05T03:26:08.213Z,6.43
2018-10-05T03:28:35.833Z,6.44
2018-10-05T03:31:03.541Z,6.44
2018-10-05T03:33:31.200Z,6.43
2018-10-05T03:35:58.824Z,6.45
2018-10-05T03:38:26.556Z,6.44
2018-10-05T03:40:54.190Z,6.41
2018-10-05T03:43:21.853Z,6.39
2018-10-05T03:45:49.522Z,6.40
2018-10-05T03:48:17.153Z,6.37
2018-10-05T03:50:44.792Z,6.35
2018-10-05T03:53:12.472Z,6.34
2018-10-05T03:55:40.133Z,6.32
2018-10-05T03:58:07.775Z,6.31
2018-10-05T04:00:35.421Z,6.31
2018-10-05T04:03:03.254Z,6.30
2018-10-05T04:05:31.121Z,6.29
2018-10-05T04:07:58.854Z,6.29
2018-10-05T04:10:26.623Z,6.26
2018-10-05T04:12:54.335Z,6.23
2018-10-05T04:15:22.108Z,6.22
2018-10-05T04:17:49.737Z,6.20
2018-10-05T04:20:17.407Z,6.19
2018-10-05T04:22:45.023Z,6.15
2018-10-05T04:25:12.648Z,6.13
2018-10-05T04:27:40.272Z,6.11
2018-10-05T04:30:07.909Z,6.06
2018-10-05T04:32:35.561Z,6.05
2018-10-05T04:35:03.193Z,6.03
2018-10-05T04:37:30.821Z,6.03
2018-10-05T04:39:58.545Z,5.98
2018-10-05T04:42:26.177Z,5.97
2018-10-05T04:44:53.801Z,5.95
2018-10-05T04:47:21.470Z,5.93
2018-10-05T04:49:49.183Z,5.92
2018-10-05T04:52:16.826Z,5.89
2018-10-05T04:54:44.459Z,5.86
2018-10-05T04:57:12.154Z,5.85
2018-10-05T04:59:39.781Z,5.81
2018-10-05T05:02:07.415Z,5.81
2018-10-05T05:04:35.080Z,5.78
2018-10-05T05:07:02.741Z,5.73
2018-10-05T05:09:30.404Z,5.71
2018-10-05T05:11:58.129Z,5.69
2018-10-05T05:14:25.814Z,5.68
2018-10-05T05:16:53.433Z,5.66
2018-10-05T05:19:21.100Z,5.66
2018-10-05T05:21:48.715Z,5.63
2018-10-05T05:24:16.356Z,5.62
2018-10-05T05:26:44.028Z,5.61
2018-10-05T05:29:11.701Z,5.60
2018-10-05T05:31:39.329Z,5.58
2018-10-05T05:34:06.995Z,5.56
2018-10-05T05:36:34.679Z,5.54
2018-10-05T05:39:02.456Z,5.53
2018-10-05T05:41:30.084Z,5.53
2018-10-05T05:43:57.757Z,5.52
2018-10-05T05:46:25.397Z,5.52
2018-10-05T05:48:53.081Z,5.50
2018-10-05T05:51:20.739Z,5.51
2018-10-05T05:53:48.581Z,5.48
2018-10-05T05:56:16.310Z,5.48
2018-10-05T05:58:44.284Z,5.50
2018-10-05T06:01:12.027Z,5.49
2018-10-05T06:03:39.633Z,5.48
2018-10-05T06:06:07.313Z,5.47
2018-10-05T06:08:35.035Z,5.46
2018-10-05T06:11:02.691Z,5.48
2018-10-05T06:13:30.408Z,5.49
2018-10-05T06:15:58.279Z,5.46
2018-10-05T06:18:25.921Z,5.48
2018-10-05T06:20:53.622Z,5.47
2018-10-05T06:23:22.137Z,5.47
2018-10-05T06:25:49.762Z,5.46
2018-10-05T06:28:17.443Z,5.46
2018-10-05T06:30:45.156Z,5.45
2018-10-05T06:33:12.852Z,5.46
2018-10-05T06:35:40.524Z,5.49
2018-10-05T06:38:08.225Z,5.51
2018-10-05T06:40:35.888Z,5.53
2018-10-05T06:43:03.515Z,5.54
2018-10-05T06:45:31.190Z,5.57
2018-10-05T06:47:58.849Z,5.62
2018-10-05T06:50:26.492Z,5.64
2018-10-05T06:52:54.680Z,5.66
2018-10-05T06:55:22.444Z,5.69
2018-10-05T06:57:50.086Z,5.66
2018-10-05T07:00:17.812Z,5.58
2018-10-05T07:02:45.649Z,5.58
2018-10-05T07:05:13.294Z,5.58
2018-10-05T07:07:40.981Z,5.65
2018-10-05T07:10:08.785Z,5.73
2018-10-05T07:12:36.458Z,5.81
2018-10-05T07:15:04.670Z,5.88
2018-10-05T07:17:32.324Z,5.95
2018-10-05T07:20:00.013Z,6.03
2018-10-05T07:22:27.702Z,6.11
2018-10-05T07:24:55.327Z,6.20
2018-10-05T07:27:22.994Z,6.32
2018-10-05T07:29:50.614Z,6.44
2018-10-05T07:32:18.373Z,6.50
2018-10-05T07:34:46.010Z,6.46
2018-10-05T07:37:13.762Z,6.46
2018-10-05T07:39:41.320Z,6.46
2018-10-05T07:42:08.997Z,6.48
2018-10-05T07:44:36.613Z,6.46
2018-10-05T07:47:04.233Z,6.46
2018-10-05T07:49:31.865Z,6.48
2018-10-05T07:51:59.485Z,6.50
2018-10-05T07:54:27.145Z,6.48
2018-10-05T07:56:54.838Z,6.50
2018-10-05T07:59:22.495Z,6.52
2018-10-05T08:01:50.152Z,6.54
2018-10-05T08:04:17.785Z,6.58
2018-10-05T08:06:45.459Z,6.60
2018-10-05T08:09:13.079Z,6.59
2018-10-05T08:11:40.741Z,6.62
2018-10-05T08:14:08.409Z,6.65
2018-10-05T08:16:36.041Z,6.64
2018-10-05T08:19:03.810Z,6.60
2018-10-05T08:21:31.612Z,6.64
2018-10-05T08:23:59.234Z,6.68
2018-10-05T08:26:26.969Z,6.75
2018-10-05T08:28:54.600Z,6.81
2018-10-05T08:31:22.237Z,6.89
2018-10-05T08:33:50.002Z,6.96
2018-10-05T08:36:17.684Z,7.01
2018-10-05T08:38:45.360Z,7.07
2018-10-05T08:41:13.030Z,7.10
2018-10-05T08:43:41.080Z,7.13
2018-10-05T08:46:08.829Z,7.13
2018-10-05T08:48:36.469Z,7.13
2018-10-05T08:51:04.161Z,7.19
2018-10-05T08:53:31.829Z,7.19
2018-10-05T08:55:59.465Z,7.20
2018-10-05T08:58:27.173Z,7.18
2018-10-05T09:00:54.811Z,7.25
2018-10-05T09:03:22.432Z,7.32
2018-10-05T09:05:50.161Z,7.34
2018-10-05T09:08:18.064Z,7.31
2018-10-05T09:10:45.713Z,7.24
2018-10-05T09:13:13.396Z,7.24
2018-10-05T09:15:41.085Z,7.48
2018-10-05T09:18:08.803Z,7.80
2018-10-05T09:20:36.416Z,7.95
2018-10-05T09:23:04.256Z,7.92
2018-10-05T09:25:32.011Z,7.84
2018-10-05T09:27:59.953Z,8.04
2018-10-05T09:30:27.816Z,8.20
2018-10-05T09:32:55.486Z,8.29
2018-10-05T09:35:23.128Z,8.33
2018-10-05T09:37:51.386Z,8.54
2018-10-05T09:40:19.064Z,8.73
2018-10-05T09:42:46.733Z,8.91
2018-10-05T09:45:14.419Z,8.89
2018-10-05T09:47:42.380Z,8.82
2018-10-05T09:50:10.049Z,8.73
2018-10-05T09:52:37.869Z,8.66
2018-10-05T09:55:05.517Z,8.87
2018-10-05T09:57:33.156Z,9.13
2018-10-05T10:00:00.915Z,9.37
2018-10-05T10:02:34.054Z,9.59
2018-10-05T10:05:01.734Z,9.65
2018-10-05T10:07:29.517Z,9.79
2018-10-05T10:09:57.154Z,10.03
2018-10-05T10:12:24.845Z,10.20
2018-10-05T10:14:52.507Z,10.40
2018-10-05T10:17:20.177Z,10.45
2018-10-05T10:19:47.815Z,10.61
2018-10-05T10:22:15.482Z,10.86
2018-10-05T10:24:43.142Z,10.95
2018-10-05T10:27:11.235Z,10.88
2018-10-05T10:29:38.857Z,10.55
2018-10-05T10:32:06.502Z,11.20
2018-10-05T10:34:34.686Z,11.44
2018-10-05T10:37:02.335Z,11.54
2018-10-05T10:39:29.973Z,11.43
2018-10-05T10:41:57.617Z,11.39
2018-10-05T10:44:25.315Z,11.60
2018-10-05T10:46:52.960Z,11.75
2018-10-05T10:49:20.665Z,11.95
2018-10-05T10:51:48.298Z,12.11
2018-10-05T10:54:15.937Z,12.22
2018-10-05T10:56:43.582Z,12.21
2018-10-05T10:59:11.310Z,12.25
2018-10-05T11:01:38.969Z,12.39
2018-10-05T11:04:06.730Z,12.23
2018-10-05T11:06:34.383Z,12.14
2018-10-05T11:09:02.104Z,12.16
2018-10-05T11:12:48.422Z,12.42
2018-10-05T11:15:16.101Z,12.47
2018-10-05T11:17:43.796Z,12.55
2018-10-05T11:20:11.424Z,12.61
2018-10-05T11:22:39.083Z,12.43
2018-10-05T11:25:06.788Z,12.49
2018-10-05T11:27:34.445Z,12.40
2018-10-05T11:30:02.150Z,12.11
2018-10-05T11:32:29.793Z,11.90
2018-10-05T11:34:57.482Z,11.99
2018-10-05T11:37:25.107Z,11.87
2018-10-05T11:39:52.734Z,11.61
2018-10-05T11:42:20.405Z,11.40
2018-10-05T11:44:48.053Z,11.36
2018-10-05T11:47:15.716Z,11.31
2018-10-05T11:49:43.475Z,11.19
2018-10-05T11:52:11.092Z,11.28
2018-10-05T11:54:38.818Z,11.13
2018-10-05T11:57:06.536Z,11.08
2018-10-05T11:59:34.263Z,11.04
2018-10-05T12:02:02.153Z,11.05
2018-10-05T12:04:29.826Z,10.84
2018-10-05T12:06:57.454Z,10.60
2018-10-05T12:09:25.105Z,10.46
2018-10-05T12:11:52.741Z,10.48
2018-10-05T12:14:20.478Z,10.54
2018-10-05T12:16:48.977Z,10.60
2018-10-05T12:19:23.286Z,10.65
2018-10-05T12:21:50.932Z,10.77
2018-10-05T12:24:18.563Z,10.82
2018-10-05T12:26:46.258Z,10.66
2018-10-05T12:29:13.898Z,10.49
2018-10-05T12:31:41.533Z,10.34
2018-10-05T12:34:09.264Z,10.27
2018-10-05T12:36:36.896Z,10.09
2018-10-05T12:39:06.305Z,10.00
2018-10-05T12:41:33.945Z,9.88
2018-10-05T12:44:01.606Z,9.84
2018-10-05T12:46:29.268Z,9.79
2018-10-05T12:48:56.893Z,9.75
2018-10-05T12:51:24.573Z,9.68
2018-10-05T12:53:52.228Z,9.59
2018-10-05T12:56:19.910Z,9.54
2018-10-05T12:58:47.561Z,9.39
2018-10-05T13:01:15.202Z,9.35
2018-10-05T13:03:42.844Z,9.31
2018-10-05T13:06:10.501Z,9.23
2018-10-05T13:08:38.133Z,9.02
2018-10-05T13:11:06.111Z,8.88
2018-10-05T13:13:33.748Z,8.78
2018-10-05T13:16:01.425Z,8.72
2018-10-05T13:18:29.094Z,8.60
2018-10-05T13:20:56.738Z,8.56
2018-10-05T13:23:24.394Z,8.52
2018-10-05T13:25:52.298Z,8.55
2018-10-05T13:28:19.945Z,8.59
2018-10-05T13:30:47.564Z,8.54
2018-10-05T13:33:15.209Z,8.49
2018-10-05T13:35:42.901Z,8.48
2018-10-05T13:38:10.541Z,8.48
2018-10-05T13:40:38.173Z,8.47
2018-10-05T13:43:05.970Z,8.45
2018-10-05T13:45:33.641Z,8.41
2018-10-05T13:48:01.296Z,8.37
2018-10-05T13:50:28.983Z,8.37
2018-10-05T13:52:56.632Z,8.37
2018-10-05T13:55:24.308Z,8.33
2018-10-05T13:57:51.981Z,8.27
2018-10-05T14:00:19.780Z,8.12
2018-10-05T14:02:47.463Z,8.10
2018-10-05T14:05:15.124Z,8.16
2018-10-05T14:07:42.750Z,8.20
2018-10-05T14:10:10.381Z,8.13
2018-10-05T14:12:38.045Z,8.19
2018-10-05T14:15:05.785Z,8.13
2018-10-05T14:17:33.493Z,8.03
2018-10-05T14:20:01.186Z,7.94
2018-10-05T14:22:28.821Z,7.91
2018-10-05T14:24:56.480Z,7.85
2018-10-05T14:27:24.112Z,7.79
2018-10-05T14:29:51.760Z,7.75
2018-10-05T14:32:19.389Z,7.70
2018-10-05T14:34:47.072Z,7.65
2018-10-05T14:37:14.694Z,7.65
2018-10-05T14:39:42.377Z,7.58
2018-10-05T14:42:09.996Z,7.48
2018-10-05T14:44:37.652Z,7.36
2018-10-05T14:47:05.285Z,7.35
2018-10-05T14:49:33.032Z,7.32
2018-10-05T14:52:00.922Z,7.24
2018-10-05T14:54:28.585Z,7.17
2018-10-05T14:56:56.226Z,7.11
2018-10-05T14:59:23.969Z,7.09
2018-10-05T15:01:51.616Z,7.08
2018-10-05T15:04:19.344Z,7.00
2018-10-05T15:06:47.046Z,6.95
2018-10-05T15:09:14.719Z,7.00
2018-10-05T15:11:42.376Z,7.02
2018-10-05T15:14:10.047Z,7.00
2018-10-05T15:16:37.681Z,7.08
2018-10-05T15:19:05.370Z,6.97
2018-10-05T15:21:33.043Z,6.92
2018-10-05T15:24:00.692Z,6.82
2018-10-05T15:26:28.377Z,6.76
2018-10-05T15:28:56.031Z,6.62
2018-10-05T15:31:23.849Z,6.58
2018-10-05T15:33:51.484Z,6.60
2018-10-05T15:36:19.101Z,6.58
2018-10-05T15:38:46.809Z,6.53
2018-10-05T15:41:14.653Z,6.40
2018-10-05T15:43:42.298Z,6.39
2018-10-05T15:46:10.964Z,6.30
2018-10-05T15:48:38.655Z,6.28
2018-10-05T15:51:06.597Z,6.20
2018-10-05T15:53:34.456Z,6.12
2018-10-05T15:56:02.544Z,6.06
2018-10-05T15:58:30.172Z,6.05
2018-10-05T16:00:57.800Z,5.97
2018-10-05T16:03:25.461Z,5.93
2018-10-05T16:05:53.273Z,5.84
2018-10-05T16:08:20.857Z,5.72
2018-10-05T16:10:48.505Z,5.79
2018-10-05T16:13:16.194Z,5.68
2018-10-05T16:15:44.038Z,5.58
2018-10-05T16:18:12.584Z,5.49
2018-10-05T16:20:40.200Z,5.42
2018-10-05T16:23:07.846Z,5.43
2018-10-05T16:25:35.556Z,5.47
2018-10-05T16:28:03.211Z,5.52
2018-10-05T16:30:31.013Z,5.38
2018-10-05T16:32:58.705Z,5.31
2018-10-05T16:35:27.121Z,5.23
2018-10-05T16:37:54.778Z,5.08
2018-10-05T16:40:22.993Z,5.06
2018-10-05T16:42:51.380Z,5.05
2018-10-05T16:45:19.067Z,5.05
2018-10-05T16:47:46.721Z,4.96
2018-10-05T16:50:14.369Z,4.87
2018-10-05T16:52:42.028Z,4.78
2018-10-05T16:55:09.650Z,4.69
2018-10-05T16:57:37.280Z,4.77
2018-10-05T17:00:05.153Z,4.80
2018-10-05T17:02:32.809Z,4.71
2018-10-05T17:05:00.459Z,4.67
2018-10-05T17:07:28.141Z,4.61
2018-10-05T17:09:55.769Z,4.55
2018-10-05T17:12:23.389Z,4.57
2018-10-05T17:14:51.030Z,4.47
2018-10-05T17:17:18.838Z,4.42
2018-10-05T17:19:46.382Z,4.34
2018-10-05T17:22:14.005Z,4.28
2018-10-05T17:24:41.619Z,4.21
2018-10-05T17:27:09.286Z,4.10
2018-10-05T17:29:36.913Z,4.02
2018-10-05T17:32:04.610Z,3.95
2018-10-05T17:34:32.273Z,3.91
2018-10-05T17:36:59.873Z,4.01
2018-10-05T17:39:27.509Z,3.97
2018-10-05T17:41:55.137Z,3.90
2018-10-05T17:44:22.861Z,3.85
2018-10-05T17:46:50.499Z,3.84
2018-10-05T17:49:18.150Z,3.74
2018-10-05T17:51:45.813Z,3.68
2018-10-05T17:54:13.429Z,3.64
2018-10-05T17:56:41.124Z,3.55
2018-10-05T17:59:08.813Z,3.57
2018-10-05T18:01:36.487Z,3.49
2018-10-05T18:04:04.996Z,3.39
2018-10-05T18:06:32.653Z,3.33
2018-10-05T18:09:00.360Z,3.38
2018-10-05T18:11:28.057Z,3.38
2018-10-05T18:13:55.734Z,3.36
2018-10-05T18:16:23.356Z,3.29
2018-10-05T18:18:51.196Z,3.21
2018-10-05T18:21:18.805Z,3.14
2018-10-05T18:23:46.801Z,3.09
2018-10-05T18:26:14.461Z,3.02
2018-10-05T18:28:42.097Z,2.95
2018-10-05T18:31:09.742Z,2.87
2018-10-05T18:33:37.453Z,2.82
2018-10-05T18:36:05.890Z,2.73
2018-10-05T18:38:33.604Z,2.60
2018-10-05T18:41:01.615Z,2.50
2018-10-05T18:43:29.332Z,2.44
2018-10-05T18:45:57.020Z,2.38
2018-10-05T18:48:24.680Z,2.29
2018-10-05T18:50:52.437Z,2.22
2018-10-05T18:53:20.121Z,2.18
2018-10-05T18:55:48.499Z,2.09
2018-10-05T18:58:16.157Z,2.04
2018-10-05T19:00:43.798Z,1.97
2018-10-05T19:03:11.433Z,1.85
2018-10-05T19:05:39.119Z,1.77
2018-10-05T19:08:06.769Z,1.74
2018-10-05T19:10:34.448Z,1.70
2018-10-05T19:13:02.133Z,1.63
2018-10-05T19:15:29.759Z,1.54
2018-10-05T19:17:57.417Z,1.49
2018-10-05T19:20:25.148Z,1.47
2018-10-05T19:22:52.848Z,1.56
2018-10-05T19:25:20.488Z,1.60
2018-10-05T19:27:48.294Z,1.48
2018-10-05T19:30:15.919Z,1.50
2018-10-05T19:32:43.540Z,1.43
2018-10-05T19:35:11.189Z,1.40
2018-10-05T19:37:39.292Z,1.44
2018-10-05T19:40:07.109Z,1.43
2018-10-05T19:42:35.093Z,1.50
2018-10-05T19:45:02.761Z,1.52
2018-10-05T19:47:30.409Z,1.50
2018-10-05T19:49:58.062Z,1.46
2018-10-05T19:52:25.769Z,1.42
2018-10-05T19:54:53.402Z,1.37
2018-10-05T19:57:21.185Z,1.38
2018-10-05T19:59:48.878Z,1.43
2018-10-05T20:02:17.456Z,1.45
2018-10-05T20:04:45.133Z,1.63
2018-10-05T20:07:12.777Z,1.70
2018-10-05T20:09:40.442Z,1.68
2018-10-05T20:12:08.333Z,1.76
2018-10-05T20:14:36.061Z,1.79
2018-10-05T20:17:03.729Z,1.93
2018-10-05T20:19:31.746Z,1.94
2018-10-05T20:21:59.440Z,1.90
2018-10-05T20:24:27.159Z,1.98
2018-10-05T20:26:55.771Z,2.17
2018-10-05T20:29:23.432Z,2.31
2018-10-05T20:31:51.061Z,2.38
2018-10-05T20:34:18.689Z,2.43
2018-10-05T20:36:46.553Z,2.46
2018-10-05T20:39:14.107Z,2.47
2018-10-05T20:41:41.769Z,2.47
2018-10-05T20:44:09.407Z,2.48
2018-10-05T20:46:37.004Z,2.56
2018-10-05T20:49:04.685Z,2.65
2018-10-05T20:51:32.418Z,2.65
2018-10-05T20:54:00.657Z,2.70
2018-10-05T20:56:28.668Z,2.67
2018-10-05T20:58:56.280Z,2.62
2018-10-05T21:01:23.991Z,2.64
2018-10-05T21:03:51.670Z,2.54
2018-10-05T21:06:19.317Z,2.54
2018-10-05T21:08:46.955Z,2.55
2018-10-05T21:11:14.576Z,2.48
2018-10-05T21:13:42.265Z,2.45
2018-10-05T21:16:09.888Z,2.49
2018-10-05T21:18:37.546Z,2.47
2018-10-05T21:21:05.269Z,2.37
2018-10-05T21:23:32.873Z,2.33
2018-10-05T21:26:00.500Z,2.23
2018-10-05T21:28:28.154Z,2.15
2018-10-05T21:30:55.789Z,2.15
2018-10-05T21:33:23.545Z,2.11
2018-10-05T21:35:51.113Z,2.00
2018-10-05T21:38:18.729Z,1.95
2018-10-05T21:40:46.381Z,1.88
2018-10-05T21:43:13.985Z,1.83
2018-10-05T21:45:41.661Z,1.80
2018-10-05T21:48:09.272Z,1.80
2018-10-05T21:50:36.948Z,1.76
2018-10-05T21:53:04.585Z,1.68
2018-10-05T21:55:32.243Z,1.59
2018-10-05T21:57:59.863Z,1.49
2018-10-05T22:00:32.830Z,1.43
2018-10-05T22:03:00.493Z,1.34
2018-10-05T22:05:28.130Z,1.26
2018-10-05T22:07:55.777Z,1.27
2018-10-05T22:10:23.449Z,1.25
2018-10-05T22:12:51.084Z,1.19
2018-10-05T22:15:19.280Z,1.16
2018-10-05T22:17:46.921Z,1.12
2018-10-05T22:20:14.544Z,1.10
2018-10-05T22:22:42.177Z,1.04
2018-10-05T22:25:09.825Z,0.98
2018-10-05T22:27:37.640Z,0.92
2018-10-05T22:30:06.225Z,0.84
2018-10-05T22:32:33.863Z,0.79
2018-10-05T22:35:01.560Z,0.72
2018-10-05T22:37:29.175Z,0.65
2018-10-05T22:39:56.860Z,0.57
2018-10-05T22:42:24.505Z,0.54
2018-10-05T22:44:52.133Z,0.53
2018-10-05T22:47:19.831Z,0.46
2018-10-05T22:49:47.470Z,0.40
2018-10-05T22:52:15.076Z,0.32
2018-10-05T22:54:42.778Z,0.26
2018-10-05T22:57:10.453Z,0.22
2018-10-05T22:59:38.080Z,0.17
2018-10-05T23:02:05.790Z,0.11
2018-10-05T23:04:33.435Z,0.07
2018-10-05T23:07:01.082Z,0.08
2018-10-05T23:09:28.758Z,0.03
2018-10-05T23:11:56.360Z,-0.04
2018-10-05T23:14:23.989Z,-0.10
2018-10-05T23:16:51.636Z,-0.17
2018-10-05T23:19:19.238Z,-0.23
2018-10-05T23:21:46.864Z,-0.32
2018-10-05T23:24:14.514Z,-0.37
2018-10-05T23:26:42.148Z,-0.31
2018-10-05T23:29:09.757Z,-0.29
2018-10-05T23:31:37.408Z,-0.37
2018-10-05T23:34:05.049Z,-0.45
2018-10-05T23:36:32.688Z,-0.47
2018-10-05T23:39:00.334Z,-0.46
2018-10-05T23:41:27.954Z,-0.46
2018-10-05T23:43:55.638Z,-0.37
2018-10-05T23:46:23.260Z,-0.32
2018-10-05T23:48:50.893Z,-0.27
2018-10-05T23:51:18.589Z,-0.27
2018-10-05T23:53:46.254Z,-0.26
2018-10-05T23:56:13.877Z,-0.30
2018-10-05T23:58:41.604Z,-0.26
